sensor_id;sensor_type;location;lat;lon;timestamp;temperature;humidity
78345;DHT22;67620;51.134;6.548;2024-01-07T00:00:17;2.20;96.20
78345;DHT22;67620;51.134;6.548;2024-01-07T00:02:42;2.20;96.00
78345;DHT22;67620;51.134;6.548;2024-01-07T00:05:08;2.20;96.10
78345;DHT22;67620;51.134;6.548;2024-01-07T00:07:34;2.20;95.90
78345;DHT22;67620;51.134;6.548;2024-01-07T00:09:59;2.20;96.40
78345;DHT22;67620;51.134;6.548;2024-01-07T00:12:24;2.10;96.70
78345;DHT22;67620;51.134;6.548;2024-01-07T00:14:50;2.10;96.30
78345;DHT22;67620;51.134;6.548;2024-01-07T00:17:16;2.10;96.70
78345;DHT22;67620;51.134;6.548;2024-01-07T00:19:41;2.20;97.10
78345;DHT22;67620;51.134;6.548;2024-01-07T00:22:07;2.10;96.50
78345;DHT22;67620;51.134;6.548;2024-01-07T00:24:33;2.00;96.70
78345;DHT22;67620;51.134;6.548;2024-01-07T00:26:58;2.00;96.90
78345;DHT22;67620;51.134;6.548;2024-01-07T00:29:24;2.00;97.20
78345;DHT22;67620;51.134;6.548;2024-01-07T00:31:49;2.10;98.00
78345;DHT22;67620;51.134;6.548;2024-01-07T00:34:15;2.10;98.00
78345;DHT22;67620;51.134;6.548;2024-01-07T00:36:40;2.10;98.40
78345;DHT22;67620;51.134;6.548;2024-01-07T00:39:06;2.10;98.20
78345;DHT22;67620;51.134;6.548;2024-01-07T00:41:31;2.10;97.90
78345;DHT22;67620;51.134;6.548;2024-01-07T00:43:57;2.20;97.40
78345;DHT22;67620;51.134;6.548;2024-01-07T00:46:22;2.10;96.90
78345;DHT22;67620;51.134;6.548;2024-01-07T00:48:48;2.20;97.20
78345;DHT22;67620;51.134;6.548;2024-01-07T00:51:13;2.20;96.70
78345;DHT22;67620;51.134;6.548;2024-01-07T00:53:39;2.30;96.40
78345;DHT22;67620;51.134;6.548;2024-01-07T00:56:05;2.20;96.40
78345;DHT22;67620;51.134;6.548;2024-01-07T00:58:31;2.10;96.00
78345;DHT22;67620;51.134;6.548;2024-01-07T01:00:56;2.10;97.00
78345;DHT22;67620;51.134;6.548;2024-01-07T01:03:22;2.20;97.30
78345;DHT22;67620;51.134;6.548;2024-01-07T01:05:47;2.20;96.90
78345;DHT22;67620;51.134;6.548;2024-01-07T01:08:13;2.10;96.60
78345;DHT22;67620;51.134;6.548;2024-01-07T01:10:38;2.20;96.70
78345;DHT22;67620;51.134;6.548;2024-01-07T01:13:04;2.20;96.50
78345;DHT22;67620;51.134;6.548;2024-01-07T01:15:29;2.10;96.50
78345;DHT22;67620;51.134;6.548;2024-01-07T01:17:55;2.20;96.70
78345;DHT22;67620;51.134;6.548;2024-01-07T01:20:20;2.20;96.90
78345;DHT22;67620;51.134;6.548;2024-01-07T01:22:46;2.30;97.10
78345;DHT22;67620;51.134;6.548;2024-01-07T01:25:11;2.20;97.00
78345;DHT22;67620;51.134;6.548;2024-01-07T01:27:37;2.20;97.00
78345;DHT22;67620;51.134;6.548;2024-01-07T01:30:03;2.20;97.10
78345;DHT22;67620;51.134;6.548;2024-01-07T01:32:28;2.30;97.40
78345;DHT22;67620;51.134;6.548;2024-01-07T01:34:54;2.30;97.50
78345;DHT22;67620;51.134;6.548;2024-01-07T01:37:19;2.20;97.90
78345;DHT22;67620;51.134;6.548;2024-01-07T01:39:45;2.20;98.30
78345;DHT22;67620;51.134;6.548;2024-01-07T01:42:10;2.10;98.40
78345;DHT22;67620;51.134;6.548;2024-01-07T01:44:36;2.30;98.90
78345;DHT22;67620;51.134;6.548;2024-01-07T01:47:01;2.20;98.70
78345;DHT22;67620;51.134;6.548;2024-01-07T01:49:27;2.20;98.80
78345;DHT22;67620;51.134;6.548;2024-01-07T01:51:53;2.20;98.40
78345;DHT22;67620;51.134;6.548;2024-01-07T01:54:20;2.20;98.30
78345;DHT22;67620;51.134;6.548;2024-01-07T01:56:46;2.20;98.00
78345;DHT22;67620;51.134;6.548;2024-01-07T01:59:14;2.30;98.00
78345;DHT22;67620;51.134;6.548;2024-01-07T02:01:40;2.20;97.60
78345;DHT22;67620;51.134;6.548;2024-01-07T02:04:06;2.20;97.00
78345;DHT22;67620;51.134;6.548;2024-01-07T02:06:31;2.30;97.00
78345;DHT22;67620;51.134;6.548;2024-01-07T02:08:57;2.40;97.40
78345;DHT22;67620;51.134;6.548;2024-01-07T02:11:23;2.30;97.10
78345;DHT22;67620;51.134;6.548;2024-01-07T02:13:49;2.30;96.60
78345;DHT22;67620;51.134;6.548;2024-01-07T02:16:15;2.30;95.80
78345;DHT22;67620;51.134;6.548;2024-01-07T02:18:42;2.30;95.60
78345;DHT22;67620;51.134;6.548;2024-01-07T02:21:09;2.30;95.20
78345;DHT22;67620;51.134;6.548;2024-01-07T02:23:35;2.20;95.50
78345;DHT22;67620;51.134;6.548;2024-01-07T02:26:00;2.30;95.60
78345;DHT22;67620;51.134;6.548;2024-01-07T02:28:26;2.40;95.00
78345;DHT22;67620;51.134;6.548;2024-01-07T02:30:51;2.30;94.40
78345;DHT22;67620;51.134;6.548;2024-01-07T02:33:17;2.40;94.90
78345;DHT22;67620;51.134;6.548;2024-01-07T02:35:42;2.50;94.60
78345;DHT22;67620;51.134;6.548;2024-01-07T02:38:08;2.50;93.90
78345;DHT22;67620;51.134;6.548;2024-01-07T02:40:33;2.30;93.40
78345;DHT22;67620;51.134;6.548;2024-01-07T02:42:59;2.40;94.10
78345;DHT22;67620;51.134;6.548;2024-01-07T02:45:24;2.30;92.70
78345;DHT22;67620;51.134;6.548;2024-01-07T02:47:50;2.30;93.40
78345;DHT22;67620;51.134;6.548;2024-01-07T02:50:15;2.30;93.00
78345;DHT22;67620;51.134;6.548;2024-01-07T02:52:41;2.30;93.30
78345;DHT22;67620;51.134;6.548;2024-01-07T02:55:08;2.40;92.70
78345;DHT22;67620;51.134;6.548;2024-01-07T02:57:33;2.30;91.90
78345;DHT22;67620;51.134;6.548;2024-01-07T02:59:59;2.30;92.50
78345;DHT22;67620;51.134;6.548;2024-01-07T03:02:24;2.40;92.10
78345;DHT22;67620;51.134;6.548;2024-01-07T03:04:50;2.30;91.50
78345;DHT22;67620;51.134;6.548;2024-01-07T03:07:15;2.30;92.30
78345;DHT22;67620;51.134;6.548;2024-01-07T03:09:41;2.20;92.40
78345;DHT22;67620;51.134;6.548;2024-01-07T03:12:06;2.30;92.70
78345;DHT22;67620;51.134;6.548;2024-01-07T03:14:32;2.30;92.60
78345;DHT22;67620;51.134;6.548;2024-01-07T03:16:57;2.30;93.00
78345;DHT22;67620;51.134;6.548;2024-01-07T03:19:23;2.30;92.70
78345;DHT22;67620;51.134;6.548;2024-01-07T03:21:48;2.30;91.90
78345;DHT22;67620;51.134;6.548;2024-01-07T03:24:14;2.20;92.60
78345;DHT22;67620;51.134;6.548;2024-01-07T03:26:40;2.30;92.40
78345;DHT22;67620;51.134;6.548;2024-01-07T03:29:05;2.20;92.80
78345;DHT22;67620;51.134;6.548;2024-01-07T03:31:31;2.20;92.80
78345;DHT22;67620;51.134;6.548;2024-01-07T03:33:56;2.20;92.60
78345;DHT22;67620;51.134;6.548;2024-01-07T03:36:22;2.10;92.50
78345;DHT22;67620;51.134;6.548;2024-01-07T03:38:48;2.00;92.50
78345;DHT22;67620;51.134;6.548;2024-01-07T03:41:17;2.00;93.50
78345;DHT22;67620;51.134;6.548;2024-01-07T03:43:46;1.90;93.40
78345;DHT22;67620;51.134;6.548;2024-01-07T03:46:12;2.00;94.80
78345;DHT22;67620;51.134;6.548;2024-01-07T03:48:38;2.00;94.20
78345;DHT22;67620;51.134;6.548;2024-01-07T03:51:04;2.00;94.50
78345;DHT22;67620;51.134;6.548;2024-01-07T03:53:29;1.90;94.00
78345;DHT22;67620;51.134;6.548;2024-01-07T03:55:55;1.90;94.00
78345;DHT22;67620;51.134;6.548;2024-01-07T03:58:20;1.80;94.10
78345;DHT22;67620;51.134;6.548;2024-01-07T04:00:46;1.70;94.50
78345;DHT22;67620;51.134;6.548;2024-01-07T04:03:11;1.80;95.20
78345;DHT22;67620;51.134;6.548;2024-01-07T04:05:37;1.90;94.90
78345;DHT22;67620;51.134;6.548;2024-01-07T04:08:03;1.90;96.10
78345;DHT22;67620;51.134;6.548;2024-01-07T04:10:29;1.80;96.90
78345;DHT22;67620;51.134;6.548;2024-01-07T04:12:55;1.90;97.80
78345;DHT22;67620;51.134;6.548;2024-01-07T04:15:20;1.90;97.30
78345;DHT22;67620;51.134;6.548;2024-01-07T04:17:46;1.80;96.70
78345;DHT22;67620;51.134;6.548;2024-01-07T04:20:14;1.80;97.30
78345;DHT22;67620;51.134;6.548;2024-01-07T04:22:40;1.80;97.30
78345;DHT22;67620;51.134;6.548;2024-01-07T04:25:05;1.70;96.50
78345;DHT22;67620;51.134;6.548;2024-01-07T04:27:35;1.80;97.30
78345;DHT22;67620;51.134;6.548;2024-01-07T04:30:01;1.80;96.50
78345;DHT22;67620;51.134;6.548;2024-01-07T04:32:26;1.70;96.10
78345;DHT22;67620;51.134;6.548;2024-01-07T04:34:52;1.60;96.60
78345;DHT22;67620;51.134;6.548;2024-01-07T04:37:17;1.60;96.70
78345;DHT22;67620;51.134;6.548;2024-01-07T04:39:43;1.70;97.30
78345;DHT22;67620;51.134;6.548;2024-01-07T04:42:08;1.70;97.90
78345;DHT22;67620;51.134;6.548;2024-01-07T04:44:34;1.70;98.00
78345;DHT22;67620;51.134;6.548;2024-01-07T04:47:00;1.80;97.30
78345;DHT22;67620;51.134;6.548;2024-01-07T04:49:25;1.70;96.70
78345;DHT22;67620;51.134;6.548;2024-01-07T04:51:51;1.90;97.70
78345;DHT22;67620;51.134;6.548;2024-01-07T04:54:16;1.80;98.00
78345;DHT22;67620;51.134;6.548;2024-01-07T04:56:43;1.80;97.40
78345;DHT22;67620;51.134;6.548;2024-01-07T04:59:09;1.80;97.40
78345;DHT22;67620;51.134;6.548;2024-01-07T05:01:35;1.70;97.50
78345;DHT22;67620;51.134;6.548;2024-01-07T05:04:01;1.60;96.70
78345;DHT22;67620;51.134;6.548;2024-01-07T05:06:27;1.60;96.60
78345;DHT22;67620;51.134;6.548;2024-01-07T05:08:52;1.60;98.10
78345;DHT22;67620;51.134;6.548;2024-01-07T05:11:18;1.60;97.80
78345;DHT22;67620;51.134;6.548;2024-01-07T05:13:43;1.60;98.20
78345;DHT22;67620;51.134;6.548;2024-01-07T05:16:09;1.60;98.30
78345;DHT22;67620;51.134;6.548;2024-01-07T05:18:34;1.50;97.30
78345;DHT22;67620;51.134;6.548;2024-01-07T05:21:00;1.30;97.30
78345;DHT22;67620;51.134;6.548;2024-01-07T05:23:25;1.40;98.00
78345;DHT22;67620;51.134;6.548;2024-01-07T05:25:51;1.40;98.40
78345;DHT22;67620;51.134;6.548;2024-01-07T05:28:16;1.40;98.30
78345;DHT22;67620;51.134;6.548;2024-01-07T05:30:45;1.40;98.70
78345;DHT22;67620;51.134;6.548;2024-01-07T05:33:10;1.40;98.40
78345;DHT22;67620;51.134;6.548;2024-01-07T05:35:36;1.30;98.30
78345;DHT22;67620;51.134;6.548;2024-01-07T05:38:02;1.30;98.60
78345;DHT22;67620;51.134;6.548;2024-01-07T05:40:27;1.30;98.70
78345;DHT22;67620;51.134;6.548;2024-01-07T05:42:52;1.20;98.00
78345;DHT22;67620;51.134;6.548;2024-01-07T05:45:18;1.30;98.60
78345;DHT22;67620;51.134;6.548;2024-01-07T05:47:43;1.30;98.90
78345;DHT22;67620;51.134;6.548;2024-01-07T05:50:09;1.40;99.10
78345;DHT22;67620;51.134;6.548;2024-01-07T05:52:36;1.30;99.00
78345;DHT22;67620;51.134;6.548;2024-01-07T05:55:01;1.30;98.90
78345;DHT22;67620;51.134;6.548;2024-01-07T05:57:27;1.20;98.90
78345;DHT22;67620;51.134;6.548;2024-01-07T05:59:52;1.10;98.60
78345;DHT22;67620;51.134;6.548;2024-01-07T06:02:18;1.20;99.20
78345;DHT22;67620;51.134;6.548;2024-01-07T06:04:44;1.20;99.40
78345;DHT22;67620;51.134;6.548;2024-01-07T06:07:09;1.20;99.40
78345;DHT22;67620;51.134;6.548;2024-01-07T06:09:35;1.20;99.30
78345;DHT22;67620;51.134;6.548;2024-01-07T06:12:01;1.20;99.30
78345;DHT22;67620;51.134;6.548;2024-01-07T06:14:26;1.30;99.50
78345;DHT22;67620;51.134;6.548;2024-01-07T06:16:52;1.20;99.20
78345;DHT22;67620;51.134;6.548;2024-01-07T06:19:18;1.20;99.30
78345;DHT22;67620;51.134;6.548;2024-01-07T06:21:43;1.30;99.50
78345;DHT22;67620;51.134;6.548;2024-01-07T06:24:09;1.20;99.50
78345;DHT22;67620;51.134;6.548;2024-01-07T06:26:35;1.20;99.40
78345;DHT22;67620;51.134;6.548;2024-01-07T06:29:00;1.20;99.10
78345;DHT22;67620;51.134;6.548;2024-01-07T06:31:26;1.20;99.30
78345;DHT22;67620;51.134;6.548;2024-01-07T06:33:52;1.30;99.40
78345;DHT22;67620;51.134;6.548;2024-01-07T06:36:18;1.10;99.00
78345;DHT22;67620;51.134;6.548;2024-01-07T06:38:43;1.10;98.80
78345;DHT22;67620;51.134;6.548;2024-01-07T06:41:12;1.20;99.00
78345;DHT22;67620;51.134;6.548;2024-01-07T06:43:38;1.20;98.90
78345;DHT22;67620;51.134;6.548;2024-01-07T06:46:04;1.20;98.70
78345;DHT22;67620;51.134;6.548;2024-01-07T06:48:30;1.20;98.70
78345;DHT22;67620;51.134;6.548;2024-01-07T06:50:55;1.10;97.80
78345;DHT22;67620;51.134;6.548;2024-01-07T06:53:21;1.00;97.40
78345;DHT22;67620;51.134;6.548;2024-01-07T06:55:47;1.00;98.10
78345;DHT22;67620;51.134;6.548;2024-01-07T06:58:12;0.90;97.40
78345;DHT22;67620;51.134;6.548;2024-01-07T07:00:38;1.00;97.50
78345;DHT22;67620;51.134;6.548;2024-01-07T07:03:04;1.00;97.40
78345;DHT22;67620;51.134;6.548;2024-01-07T07:05:30;0.90;96.50
78345;DHT22;67620;51.134;6.548;2024-01-07T07:07:57;0.90;97.50
78345;DHT22;67620;51.134;6.548;2024-01-07T07:10:22;0.80;97.20
78345;DHT22;67620;51.134;6.548;2024-01-07T07:12:48;0.90;98.00
78345;DHT22;67620;51.134;6.548;2024-01-07T07:15:13;0.90;97.50
78345;DHT22;67620;51.134;6.548;2024-01-07T07:17:39;0.90;97.50
78345;DHT22;67620;51.134;6.548;2024-01-07T07:20:05;0.70;96.00
78345;DHT22;67620;51.134;6.548;2024-01-07T07:22:31;0.80;97.00
78345;DHT22;67620;51.134;6.548;2024-01-07T07:24:57;0.80;96.80
78345;DHT22;67620;51.134;6.548;2024-01-07T07:27:22;0.90;97.60
78345;DHT22;67620;51.134;6.548;2024-01-07T07:29:48;0.90;97.30
78345;DHT22;67620;51.134;6.548;2024-01-07T07:32:13;0.90;97.10
78345;DHT22;67620;51.134;6.548;2024-01-07T07:34:38;0.90;97.20
78345;DHT22;67620;51.134;6.548;2024-01-07T07:37:04;0.90;96.40
78345;DHT22;67620;51.134;6.548;2024-01-07T07:39:29;0.90;96.30
78345;DHT22;67620;51.134;6.548;2024-01-07T07:41:55;0.90;97.00
78345;DHT22;67620;51.134;6.548;2024-01-07T07:44:20;0.80;96.00
78345;DHT22;67620;51.134;6.548;2024-01-07T07:46:46;1.00;97.20
78345;DHT22;67620;51.134;6.548;2024-01-07T07:49:11;0.90;96.40
78345;DHT22;67620;51.134;6.548;2024-01-07T07:51:38;0.90;95.30
78345;DHT22;67620;51.134;6.548;2024-01-07T07:54:03;1.00;96.50
78345;DHT22;67620;51.134;6.548;2024-01-07T07:56:29;1.10;96.80
78345;DHT22;67620;51.134;6.548;2024-01-07T07:58:54;1.10;97.00
78345;DHT22;67620;51.134;6.548;2024-01-07T08:01:20;1.10;96.80
78345;DHT22;67620;51.134;6.548;2024-01-07T08:03:45;1.10;96.30
78345;DHT22;67620;51.134;6.548;2024-01-07T08:06:11;1.10;96.10
78345;DHT22;67620;51.134;6.548;2024-01-07T08:08:36;1.00;95.50
78345;DHT22;67620;51.134;6.548;2024-01-07T08:11:02;1.00;96.10
78345;DHT22;67620;51.134;6.548;2024-01-07T08:13:28;1.00;95.40
78345;DHT22;67620;51.134;6.548;2024-01-07T08:15:53;1.00;95.50
78345;DHT22;67620;51.134;6.548;2024-01-07T08:18:19;0.90;93.90
78345;DHT22;67620;51.134;6.548;2024-01-07T08:20:44;0.90;94.10
78345;DHT22;67620;51.134;6.548;2024-01-07T08:23:10;0.90;94.00
78345;DHT22;67620;51.134;6.548;2024-01-07T08:25:35;0.90;94.30
78345;DHT22;67620;51.134;6.548;2024-01-07T08:28:01;0.90;94.30
78345;DHT22;67620;51.134;6.548;2024-01-07T08:30:26;0.90;93.80
78345;DHT22;67620;51.134;6.548;2024-01-07T08:32:52;0.90;95.00
78345;DHT22;67620;51.134;6.548;2024-01-07T08:35:17;0.80;93.80
78345;DHT22;67620;51.134;6.548;2024-01-07T08:37:43;0.70;93.80
78345;DHT22;67620;51.134;6.548;2024-01-07T08:40:10;0.70;93.90
78345;DHT22;67620;51.134;6.548;2024-01-07T08:42:36;0.70;94.30
78345;DHT22;67620;51.134;6.548;2024-01-07T08:45:01;0.70;93.80
78345;DHT22;67620;51.134;6.548;2024-01-07T08:47:29;0.80;94.50
78345;DHT22;67620;51.134;6.548;2024-01-07T08:49:56;0.80;96.10
78345;DHT22;67620;51.134;6.548;2024-01-07T08:52:22;0.80;95.00
78345;DHT22;67620;51.134;6.548;2024-01-07T08:54:47;0.90;94.80
78345;DHT22;67620;51.134;6.548;2024-01-07T08:57:13;0.70;93.50
78345;DHT22;67620;51.134;6.548;2024-01-07T08:59:38;0.70;94.40
78345;DHT22;67620;51.134;6.548;2024-01-07T09:02:04;0.70;94.40
78345;DHT22;67620;51.134;6.548;2024-01-07T09:04:30;0.60;92.70
78345;DHT22;67620;51.134;6.548;2024-01-07T09:06:55;0.60;94.40
78345;DHT22;67620;51.134;6.548;2024-01-07T09:09:21;0.60;93.20
78345;DHT22;67620;51.134;6.548;2024-01-07T09:11:47;0.60;93.00
78345;DHT22;67620;51.134;6.548;2024-01-07T09:14:12;0.60;94.60
78345;DHT22;67620;51.134;6.548;2024-01-07T09:16:40;0.60;94.70
78345;DHT22;67620;51.134;6.548;2024-01-07T09:19:05;0.60;93.80
78345;DHT22;67620;51.134;6.548;2024-01-07T09:21:30;0.50;93.10
78345;DHT22;67620;51.134;6.548;2024-01-07T09:23:56;0.60;94.80
78345;DHT22;67620;51.134;6.548;2024-01-07T09:26:21;0.50;93.90
78345;DHT22;67620;51.134;6.548;2024-01-07T09:28:47;0.50;94.10
78345;DHT22;67620;51.134;6.548;2024-01-07T09:31:12;0.60;95.00
78345;DHT22;67620;51.134;6.548;2024-01-07T09:33:38;0.50;94.70
78345;DHT22;67620;51.134;6.548;2024-01-07T09:36:04;0.50;95.90
78345;DHT22;67620;51.134;6.548;2024-01-07T09:38:29;0.40;95.20
78345;DHT22;67620;51.134;6.548;2024-01-07T09:40:55;0.50;95.10
78345;DHT22;67620;51.134;6.548;2024-01-07T09:43:21;0.50;94.50
78345;DHT22;67620;51.134;6.548;2024-01-07T09:45:47;0.60;96.30
78345;DHT22;67620;51.134;6.548;2024-01-07T09:48:14;0.60;94.10
78345;DHT22;67620;51.134;6.548;2024-01-07T09:50:40;0.60;94.10
78345;DHT22;67620;51.134;6.548;2024-01-07T09:53:07;0.60;93.10
78345;DHT22;67620;51.134;6.548;2024-01-07T09:58:29;0.50;93.90
78345;DHT22;67620;51.134;6.548;2024-01-07T10:00:54;0.50;93.90
78345;DHT22;67620;51.134;6.548;2024-01-07T10:03:20;0.60;93.10
78345;DHT22;67620;51.134;6.548;2024-01-07T10:05:45;0.60;92.50
78345;DHT22;67620;51.134;6.548;2024-01-07T10:08:11;0.60;91.90
78345;DHT22;67620;51.134;6.548;2024-01-07T10:10:36;0.80;94.00
78345;DHT22;67620;51.134;6.548;2024-01-07T10:13:02;0.80;94.00
78345;DHT22;67620;51.134;6.548;2024-01-07T10:15:28;0.90;94.40
78345;DHT22;67620;51.134;6.548;2024-01-07T10:18:03;0.70;91.40
78345;DHT22;67620;51.134;6.548;2024-01-07T10:20:29;0.70;94.60
78345;DHT22;67620;51.134;6.548;2024-01-07T10:22:56;0.60;92.30
78345;DHT22;67620;51.134;6.548;2024-01-07T10:25:21;0.60;92.70
78345;DHT22;67620;51.134;6.548;2024-01-07T10:27:47;0.50;92.10
78345;DHT22;67620;51.134;6.548;2024-01-07T10:30:15;0.50;92.80
78345;DHT22;67620;51.134;6.548;2024-01-07T10:32:42;0.50;92.80
78345;DHT22;67620;51.134;6.548;2024-01-07T10:35:14;0.50;93.40
78345;DHT22;67620;51.134;6.548;2024-01-07T10:37:44;0.50;92.60
78345;DHT22;67620;51.134;6.548;2024-01-07T10:40:11;0.50;92.40
78345;DHT22;67620;51.134;6.548;2024-01-07T10:42:38;0.60;93.60
78345;DHT22;67620;51.134;6.548;2024-01-07T10:45:04;0.60;93.40
78345;DHT22;67620;51.134;6.548;2024-01-07T10:47:31;0.60;92.70
78345;DHT22;67620;51.134;6.548;2024-01-07T10:49:58;0.50;93.50
78345;DHT22;67620;51.134;6.548;2024-01-07T10:52:26;0.50;91.90
78345;DHT22;67620;51.134;6.548;2024-01-07T10:54:53;0.40;91.90
78345;DHT22;67620;51.134;6.548;2024-01-07T10:57:26;0.40;90.90
78345;DHT22;67620;51.134;6.548;2024-01-07T10:59:53;0.50;92.00
78345;DHT22;67620;51.134;6.548;2024-01-07T11:02:21;0.50;91.30
78345;DHT22;67620;51.134;6.548;2024-01-07T11:04:56;0.80;92.70
78345;DHT22;67620;51.134;6.548;2024-01-07T11:07:38;0.70;91.20
78345;DHT22;67620;51.134;6.548;2024-01-07T11:10:13;0.70;88.70
78345;DHT22;67620;51.134;6.548;2024-01-07T11:12:40;0.70;89.90
78345;DHT22;67620;51.134;6.548;2024-01-07T11:15:06;0.80;90.50
78345;DHT22;67620;51.134;6.548;2024-01-07T11:20:07;0.70;90.70
78345;DHT22;67620;51.134;6.548;2024-01-07T11:22:37;0.80;88.50
78345;DHT22;67620;51.134;6.548;2024-01-07T11:25:30;0.90;88.60
78345;DHT22;67620;51.134;6.548;2024-01-07T11:27:57;0.80;87.70
78345;DHT22;67620;51.134;6.548;2024-01-07T11:30:23;0.80;88.20
78345;DHT22;67620;51.134;6.548;2024-01-07T11:32:59;0.70;86.50
78345;DHT22;67620;51.134;6.548;2024-01-07T11:35:56;0.60;86.50
78345;DHT22;67620;51.134;6.548;2024-01-07T11:38:23;0.60;87.70
78345;DHT22;67620;51.134;6.548;2024-01-07T11:40:49;0.70;87.80
78345;DHT22;67620;51.134;6.548;2024-01-07T11:43:15;0.60;86.60
78345;DHT22;67620;51.134;6.548;2024-01-07T11:45:41;0.60;86.70
78345;DHT22;67620;51.134;6.548;2024-01-07T11:48:07;0.60;88.10
78345;DHT22;67620;51.134;6.548;2024-01-07T11:50:32;0.60;87.10
78345;DHT22;67620;51.134;6.548;2024-01-07T11:52:58;0.60;88.10
78345;DHT22;67620;51.134;6.548;2024-01-07T11:55:25;0.60;85.90
78345;DHT22;67620;51.134;6.548;2024-01-07T11:57:51;0.50;88.00
78345;DHT22;67620;51.134;6.548;2024-01-07T12:00:17;0.70;89.20
78345;DHT22;67620;51.134;6.548;2024-01-07T12:02:43;0.60;86.70
78345;DHT22;67620;51.134;6.548;2024-01-07T12:05:08;0.70;86.00
78345;DHT22;67620;51.134;6.548;2024-01-07T12:07:34;0.60;86.10
78345;DHT22;67620;51.134;6.548;2024-01-07T12:10:02;0.70;86.80
78345;DHT22;67620;51.134;6.548;2024-01-07T12:12:28;0.70;84.60
78345;DHT22;67620;51.134;6.548;2024-01-07T12:14:54;0.60;85.40
78345;DHT22;67620;51.134;6.548;2024-01-07T12:17:21;0.60;86.60
78345;DHT22;67620;51.134;6.548;2024-01-07T12:19:47;0.50;84.00
78345;DHT22;67620;51.134;6.548;2024-01-07T12:22:13;0.60;86.90
78345;DHT22;67620;51.134;6.548;2024-01-07T12:24:38;0.70;84.30
78345;DHT22;67620;51.134;6.548;2024-01-07T12:27:07;0.70;86.20
78345;DHT22;67620;51.134;6.548;2024-01-07T12:29:32;0.60;84.80
78345;DHT22;67620;51.134;6.548;2024-01-07T12:31:59;0.50;85.90
78345;DHT22;67620;51.134;6.548;2024-01-07T12:34:25;0.60;86.80
78345;DHT22;67620;51.134;6.548;2024-01-07T12:36:50;0.50;85.40
78345;DHT22;67620;51.134;6.548;2024-01-07T12:39:17;0.60;86.70
78345;DHT22;67620;51.134;6.548;2024-01-07T12:41:43;0.60;85.10
78345;DHT22;67620;51.134;6.548;2024-01-07T12:44:08;0.60;84.40
78345;DHT22;67620;51.134;6.548;2024-01-07T12:46:34;0.60;83.70
78345;DHT22;67620;51.134;6.548;2024-01-07T12:49:00;0.40;83.30
78345;DHT22;67620;51.134;6.548;2024-01-07T12:51:25;0.40;86.40
78345;DHT22;67620;51.134;6.548;2024-01-07T12:53:51;0.30;83.50
78345;DHT22;67620;51.134;6.548;2024-01-07T12:56:17;0.40;84.40
78345;DHT22;67620;51.134;6.548;2024-01-07T12:58:42;0.30;82.60
78345;DHT22;67620;51.134;6.548;2024-01-07T13:01:08;0.30;83.90
78345;DHT22;67620;51.134;6.548;2024-01-07T13:03:34;0.40;84.00
78345;DHT22;67620;51.134;6.548;2024-01-07T13:06:00;0.40;82.50
78345;DHT22;67620;51.134;6.548;2024-01-07T13:08:26;0.50;84.30
78345;DHT22;67620;51.134;6.548;2024-01-07T13:10:53;0.50;81.30
78345;DHT22;67620;51.134;6.548;2024-01-07T13:13:19;0.40;82.10
78345;DHT22;67620;51.134;6.548;2024-01-07T13:15:44;0.30;81.10
78345;DHT22;67620;51.134;6.548;2024-01-07T13:18:10;0.40;82.30
78345;DHT22;67620;51.134;6.548;2024-01-07T13:20:38;0.30;81.10
78345;DHT22;67620;51.134;6.548;2024-01-07T13:23:05;0.30;80.00
78345;DHT22;67620;51.134;6.548;2024-01-07T13:25:31;0.30;80.70
78345;DHT22;67620;51.134;6.548;2024-01-07T13:27:56;0.30;79.90
78345;DHT22;67620;51.134;6.548;2024-01-07T13:30:23;0.20;81.10
78345;DHT22;67620;51.134;6.548;2024-01-07T13:32:48;0.30;79.50
78345;DHT22;67620;51.134;6.548;2024-01-07T13:35:14;0.30;78.70
78345;DHT22;67620;51.134;6.548;2024-01-07T13:37:40;0.20;78.50
78345;DHT22;67620;51.134;6.548;2024-01-07T13:40:10;0.20;79.20
78345;DHT22;67620;51.134;6.548;2024-01-07T13:42:38;0.20;80.20
78345;DHT22;67620;51.134;6.548;2024-01-07T13:45:04;0.10;78.00
78345;DHT22;67620;51.134;6.548;2024-01-07T13:47:30;-0.10;76.90
78345;DHT22;67620;51.134;6.548;2024-01-07T13:49:55;-0.10;77.40
78345;DHT22;67620;51.134;6.548;2024-01-07T13:52:21;-0.20;78.40
78345;DHT22;67620;51.134;6.548;2024-01-07T13:54:46;-0.10;78.50
78345;DHT22;67620;51.134;6.548;2024-01-07T13:57:12;-0.10;78.00
78345;DHT22;67620;51.134;6.548;2024-01-07T13:59:38;-0.10;75.10
78345;DHT22;67620;51.134;6.548;2024-01-07T14:02:06;-0.20;76.00
78345;DHT22;67620;51.134;6.548;2024-01-07T14:04:32;-0.10;76.80
78345;DHT22;67620;51.134;6.548;2024-01-07T14:06:58;-0.20;76.00
78345;DHT22;67620;51.134;6.548;2024-01-07T14:09:24;-0.20;75.40
78345;DHT22;67620;51.134;6.548;2024-01-07T14:11:50;-0.20;76.00
78345;DHT22;67620;51.134;6.548;2024-01-07T14:14:15;-0.20;75.30
78345;DHT22;67620;51.134;6.548;2024-01-07T14:16:41;-0.20;76.30
78345;DHT22;67620;51.134;6.548;2024-01-07T14:19:07;-0.10;76.20
78345;DHT22;67620;51.134;6.548;2024-01-07T14:21:32;-0.20;75.90
78345;DHT22;67620;51.134;6.548;2024-01-07T14:23:58;-0.20;75.80
78345;DHT22;67620;51.134;6.548;2024-01-07T14:26:23;-0.10;77.70
78345;DHT22;67620;51.134;6.548;2024-01-07T14:28:49;-0.10;76.10
78345;DHT22;67620;51.134;6.548;2024-01-07T14:31:16;-0.10;76.70
78345;DHT22;67620;51.134;6.548;2024-01-07T14:33:42;-0.20;74.30
78345;DHT22;67620;51.134;6.548;2024-01-07T14:36:08;-0.20;75.20
78345;DHT22;67620;51.134;6.548;2024-01-07T14:38:39;-0.30;74.20
78345;DHT22;67620;51.134;6.548;2024-01-07T14:41:05;-0.40;74.60
78345;DHT22;67620;51.134;6.548;2024-01-07T14:43:30;-0.50;74.30
78345;DHT22;67620;51.134;6.548;2024-01-07T14:45:56;-0.60;74.40
78345;DHT22;67620;51.134;6.548;2024-01-07T14:48:21;-0.60;74.10
78345;DHT22;67620;51.134;6.548;2024-01-07T14:50:47;-0.60;73.70
78345;DHT22;67620;51.134;6.548;2024-01-07T14:53:13;-0.70;71.30
78345;DHT22;67620;51.134;6.548;2024-01-07T14:55:38;-0.60;73.10
78345;DHT22;67620;51.134;6.548;2024-01-07T14:58:04;-0.50;74.20
78345;DHT22;67620;51.134;6.548;2024-01-07T15:00:29;-0.50;72.40
78345;DHT22;67620;51.134;6.548;2024-01-07T15:02:55;-0.60;72.50
78345;DHT22;67620;51.134;6.548;2024-01-07T15:05:21;-0.70;72.80
78345;DHT22;67620;51.134;6.548;2024-01-07T15:07:46;-0.70;73.00
78345;DHT22;67620;51.134;6.548;2024-01-07T15:10:15;-0.80;71.70
78345;DHT22;67620;51.134;6.548;2024-01-07T15:12:42;-0.80;70.90
78345;DHT22;67620;51.134;6.548;2024-01-07T15:15:07;-0.70;71.00
78345;DHT22;67620;51.134;6.548;2024-01-07T15:17:34;-0.80;70.60
78345;DHT22;67620;51.134;6.548;2024-01-07T15:19:59;-0.70;70.30
78345;DHT22;67620;51.134;6.548;2024-01-07T15:22:25;-0.70;71.00
78345;DHT22;67620;51.134;6.548;2024-01-07T15:24:50;-0.60;72.50
78345;DHT22;67620;51.134;6.548;2024-01-07T15:27:16;-0.60;70.90
78345;DHT22;67620;51.134;6.548;2024-01-07T15:29:41;-0.60;71.20
78345;DHT22;67620;51.134;6.548;2024-01-07T15:32:06;-0.50;71.30
78345;DHT22;67620;51.134;6.548;2024-01-07T15:34:32;-0.50;70.40
78345;DHT22;67620;51.134;6.548;2024-01-07T15:36:57;-0.60;70.60
78345;DHT22;67620;51.134;6.548;2024-01-07T15:39:23;-0.60;70.90
78345;DHT22;67620;51.134;6.548;2024-01-07T15:41:48;-0.60;71.50